Terminal Aerodrome Forecast
Issued by NWS Cleveland, OH

Home | Current Version | Previous Version | Text Only | Print | Product List | Glossary On
Versions: 1 2 3 4 5 6 7 8 9 10 11 12 13 14 15 16 17
000
FTUS41 KCLE 260530
TAFERI
TAF
KERI 260530Z 2606/2706 22006KT P6SM SCT050 OVC100
     FM261000 22006KT P6SM VCSH OVC050
     FM261400 24012G22KT P6SM -SHRA OVC050
      TEMPO 2614/2618 4SM -TSRA OVC030CB
     FM261800 27014G22KT P6SM BKN060=

USA.gov is the U.S. government's official web portal to all federal, state and local government web resources and services.